createdAt,value
2022-11-19T00:01:52.381Z,100.00
2022-11-19T00:04:23.853Z,100.00
2022-11-19T00:06:55.714Z,100.00
2022-11-19T00:09:27.294Z,100.00
2022-11-19T00:12:17.834Z,100.00
2022-11-19T00:14:49.305Z,100.00
2022-11-19T00:17:21.074Z,100.00
2022-11-19T00:19:52.541Z,100.00
2022-11-19T00:22:24.397Z,100.00
2022-11-19T00:24:55.891Z,100.00
2022-11-19T00:27:27.708Z,100.00
2022-11-19T00:29:59.218Z,100.00
2022-11-19T00:32:32.272Z,100.00
2022-11-19T00:35:03.768Z,100.00
2022-11-19T00:37:35.590Z,100.00
2022-11-19T00:40:12.012Z,100.00
2022-11-19T00:43:03.911Z,100.00
2022-11-19T00:45:35.420Z,100.00
2022-11-19T00:48:07.218Z,100.00
2022-11-19T00:50:38.709Z,100.00
2022-11-19T00:53:10.496Z,100.00
2022-11-19T00:55:41.965Z,100.00
2022-11-19T00:58:14.168Z,100.00
2022-11-19T01:00:45.698Z,100.00
2022-11-19T01:03:17.623Z,100.00
2022-11-19T01:05:49.106Z,100.00
2022-11-19T01:08:20.923Z,100.00
2022-11-19T01:10:52.477Z,100.00
2022-11-19T01:13:36.643Z,100.00
2022-11-19T01:16:08.125Z,100.00
2022-11-19T01:18:39.942Z,100.00
2022-11-19T01:21:11.475Z,100.00
2022-11-19T01:23:43.294Z,100.00
2022-11-19T01:26:14.801Z,100.00
2022-11-19T01:28:46.588Z,100.00
2022-11-19T01:31:18.077Z,100.00
2022-11-19T01:33:49.869Z,100.00
2022-11-19T01:36:21.334Z,100.00
2022-11-19T01:38:54.123Z,100.00
2022-11-19T01:41:25.599Z,100.00
2022-11-19T01:43:59.412Z,100.00
2022-11-19T01:46:30.933Z,100.00
2022-11-19T01:49:02.777Z,100.00
2022-11-19T01:51:34.242Z,100.00
2022-11-19T01:54:06.653Z,100.00
2022-11-19T01:56:38.126Z,100.00
2022-11-19T01:59:09.974Z,100.00
2022-11-19T02:01:41.527Z,100.00
2022-11-19T02:04:13.412Z,100.00
2022-11-19T02:06:44.919Z,100.00
2022-11-19T02:09:16.955Z,100.00
2022-11-19T02:11:48.629Z,100.00
2022-11-19T02:14:20.513Z,100.00
2022-11-19T02:16:51.995Z,100.00
2022-11-19T02:19:23.807Z,100.00
2022-11-19T02:21:55.317Z,100.00
2022-11-19T02:24:27.099Z,100.00
2022-11-19T02:26:58.639Z,100.00
2022-11-19T02:29:30.587Z,100.00
2022-11-19T02:32:02.070Z,100.00
2022-11-19T02:34:33.869Z,100.00
2022-11-19T02:37:05.341Z,100.00
2022-11-19T02:39:37.112Z,100.00
2022-11-19T02:42:08.608Z,100.00
2022-11-19T02:44:59.365Z,100.00
2022-11-19T02:47:31.376Z,100.00
2022-11-19T02:50:02.894Z,100.00
2022-11-19T02:52:34.686Z,100.00
2022-11-19T02:55:06.172Z,100.00
2022-11-19T02:57:38.120Z,100.00
2022-11-19T03:00:28.522Z,100.00
2022-11-19T03:03:32.372Z,100.00
2022-11-19T03:06:03.844Z,100.00
2022-11-19T03:08:35.608Z,100.00
2022-11-19T03:11:07.080Z,100.00
2022-11-19T03:13:57.790Z,100.00
2022-11-19T03:16:41.400Z,100.00
2022-11-19T03:19:13.390Z,100.00
2022-11-19T03:21:44.868Z,100.00
2022-11-19T03:24:16.675Z,100.00
2022-11-19T03:26:48.135Z,100.00
2022-11-19T03:29:20.342Z,100.00
2022-11-19T03:31:52.085Z,100.00
2022-11-19T03:34:23.865Z,100.00
2022-11-19T03:36:55.310Z,100.00
2022-11-19T03:39:27.243Z,100.00
2022-11-19T03:41:58.786Z,100.00
2022-11-19T03:44:30.714Z,100.00
2022-11-19T03:47:02.202Z,100.00
2022-11-19T03:49:34.063Z,100.00
2022-11-19T03:52:05.593Z,100.00
2022-11-19T03:54:37.469Z,100.00
2022-11-19T03:57:08.918Z,100.00
2022-11-19T03:59:40.727Z,100.00
2022-11-19T04:02:12.216Z,100.00
2022-11-19T04:04:43.993Z,100.00
2022-11-19T04:07:15.581Z,100.00
2022-11-19T04:09:47.482Z,100.00
2022-11-19T04:12:19.045Z,100.00
2022-11-19T04:14:50.809Z,100.00
2022-11-19T04:17:22.269Z,100.00
2022-11-19T04:19:54.054Z,100.00
2022-11-19T04:22:25.525Z,100.00
2022-11-19T04:24:57.415Z,100.00
2022-11-19T04:27:28.867Z,100.00
2022-11-19T04:30:00.551Z,100.00
2022-11-19T04:32:32.478Z,100.00
2022-11-19T04:35:03.964Z,100.00
2022-11-19T04:37:36.009Z,100.00
2022-11-19T04:40:07.868Z,100.00
2022-11-19T04:42:39.334Z,100.00
2022-11-19T04:45:11.406Z,100.00
2022-11-19T04:47:42.860Z,100.00
2022-11-19T04:50:14.731Z,100.00
2022-11-19T04:52:46.190Z,100.00
2022-11-19T04:55:18.066Z,100.00
2022-11-19T04:57:51.789Z,100.00
2022-11-19T05:00:23.899Z,100.00
2022-11-19T05:02:55.467Z,100.00
2022-11-19T05:05:27.470Z,100.00
2022-11-19T05:07:58.980Z,100.00
2022-11-19T05:10:30.843Z,100.00
2022-11-19T05:13:02.362Z,100.00
2022-11-19T05:15:34.251Z,100.00
2022-11-19T05:18:05.747Z,100.00
2022-11-19T05:20:37.628Z,100.00
2022-11-19T05:23:09.130Z,100.00
2022-11-19T05:25:41.041Z,100.00
2022-11-19T05:28:12.520Z,100.00
2022-11-19T05:30:44.144Z,100.00
2022-11-19T05:33:15.643Z,100.00
2022-11-19T05:35:47.587Z,100.00
2022-11-19T05:38:19.184Z,100.00
2022-11-19T05:40:51.111Z,100.00
2022-11-19T05:43:22.595Z,100.00
2022-11-19T05:45:54.493Z,100.00
2022-11-19T05:48:25.954Z,100.00
2022-11-19T05:50:57.509Z,100.00
2022-11-19T05:53:28.966Z,100.00
2022-11-19T05:56:01.230Z,100.00
2022-11-19T05:58:32.763Z,100.00
2022-11-19T06:01:04.620Z,100.00
2022-11-19T06:03:36.117Z,100.00
2022-11-19T06:06:08.194Z,100.00
2022-11-19T06:08:39.708Z,100.00
2022-11-19T06:11:31.615Z,100.00
2022-11-19T06:14:03.143Z,100.00
2022-11-19T06:16:35.277Z,100.00
2022-11-19T06:19:06.831Z,100.00
2022-11-19T06:21:38.961Z,100.00
2022-11-19T06:24:10.448Z,100.00
2022-11-19T06:26:42.111Z,100.00
2022-11-19T06:29:13.772Z,100.00
2022-11-19T06:31:45.801Z,100.00
2022-11-19T06:34:17.282Z,100.00
2022-11-19T06:36:50.749Z,100.00
2022-11-19T06:39:22.751Z,100.00
2022-11-19T06:42:14.936Z,100.00
2022-11-19T06:44:46.408Z,100.00
2022-11-19T06:47:18.298Z,100.00
2022-11-19T06:49:49.788Z,100.00
2022-11-19T06:52:21.323Z,100.00
2022-11-19T06:54:52.914Z,100.00
2022-11-19T06:57:25.304Z,100.00
2022-11-19T06:59:56.941Z,100.00
2022-11-19T07:02:28.926Z,100.00
2022-11-19T07:05:00.383Z,100.00
2022-11-19T07:07:32.453Z,100.00
2022-11-19T07:10:03.956Z,100.00
2022-11-19T07:12:36.063Z,100.00
2022-11-19T07:15:07.715Z,100.00
2022-11-19T07:17:40.226Z,100.00
2022-11-19T07:20:11.712Z,100.00
2022-11-19T07:22:43.675Z,100.00
2022-11-19T07:25:15.174Z,100.00
2022-11-19T07:27:47.883Z,100.00
2022-11-19T07:30:19.350Z,100.00
2022-11-19T07:32:51.395Z,100.00
2022-11-19T07:35:22.971Z,100.00
2022-11-19T07:37:55.081Z,100.00
2022-11-19T07:40:26.970Z,100.00
2022-11-19T07:42:58.453Z,100.00
2022-11-19T07:45:30.237Z,100.00
2022-11-19T07:48:01.713Z,100.00
2022-11-19T07:50:33.548Z,100.00
2022-11-19T07:53:05.048Z,100.00
2022-11-19T07:55:36.708Z,100.00
2022-11-19T07:58:08.585Z,100.00
2022-11-19T08:00:40.092Z,100.00
2022-11-19T08:03:11.838Z,100.00
2022-11-19T08:05:43.309Z,100.00
2022-11-19T08:08:15.304Z,99.84
2022-11-19T08:10:46.779Z,100.00
2022-11-19T08:13:18.277Z,100.00
2022-11-19T08:15:49.738Z,100.00
2022-11-19T08:18:21.528Z,100.00
2022-11-19T08:20:53.012Z,100.00
2022-11-19T08:23:24.508Z,100.00
2022-11-19T08:25:56.030Z,100.00
2022-11-19T08:28:27.853Z,99.62
2022-11-19T08:30:59.360Z,97.79
2022-11-19T08:33:31.504Z,98.66
2022-11-19T08:36:02.991Z,97.12
2022-11-19T08:38:38.636Z,96.31
2022-11-19T08:41:36.730Z,97.14
2022-11-19T08:44:08.563Z,95.79
2022-11-19T08:46:40.176Z,96.48
2022-11-19T08:49:14.790Z,97.68
2022-11-19T08:51:46.290Z,97.94
2022-11-19T08:54:18.477Z,97.35
2022-11-19T08:56:50.178Z,96.07
2022-11-19T08:59:21.961Z,94.61
2022-11-19T09:01:53.727Z,94.16
2022-11-19T09:04:25.665Z,92.04
2022-11-19T09:06:57.298Z,91.64
2022-11-19T09:09:29.170Z,89.83
2022-11-19T09:12:00.717Z,83.82
2022-11-19T09:14:32.536Z,83.77
2022-11-19T09:17:04.006Z,84.48
2022-11-19T09:19:35.807Z,80.95
2022-11-19T09:22:07.275Z,80.31
2022-11-19T09:24:39.314Z,80.14
2022-11-19T09:27:11.037Z,80.15
2022-11-19T09:29:43.037Z,81.19
2022-11-19T09:32:14.542Z,81.68
2022-11-19T09:34:46.379Z,84.31
2022-11-19T09:37:17.948Z,82.02
2022-11-19T09:39:49.758Z,83.26
2022-11-19T09:42:21.251Z,82.82
2022-11-19T09:44:53.045Z,85.43
2022-11-19T09:47:24.544Z,84.08
2022-11-19T09:49:56.359Z,81.65
2022-11-19T09:52:27.848Z,81.33
2022-11-19T09:54:59.793Z,81.40
2022-11-19T09:57:31.308Z,82.85
2022-11-19T10:00:03.207Z,83.05
2022-11-19T10:02:34.750Z,82.49
2022-11-19T10:05:06.645Z,82.02
2022-11-19T10:07:38.273Z,82.59
2022-11-19T10:10:12.507Z,82.52
2022-11-19T10:12:44.330Z,82.71
2022-11-19T10:15:16.325Z,83.24
2022-11-19T10:17:47.902Z,81.05
2022-11-19T10:20:19.804Z,80.75
2022-11-19T10:22:57.156Z,79.97
2022-11-19T10:25:29.617Z,79.84
2022-11-19T10:28:01.850Z,77.79
2022-11-19T10:30:33.374Z,78.54
2022-11-19T10:33:04.923Z,76.29
2022-11-19T10:35:36.739Z,75.01
2022-11-19T10:38:08.199Z,75.81
2022-11-19T10:40:40.043Z,75.03
2022-11-19T10:43:11.532Z,73.83
2022-11-19T10:45:43.387Z,73.05
2022-11-19T10:48:14.865Z,72.52
2022-11-19T10:50:46.701Z,70.41
2022-11-19T10:53:18.224Z,69.19
2022-11-19T10:55:54.192Z,68.85
2022-11-19T10:58:26.293Z,68.76
2022-11-19T11:00:58.118Z,66.92
2022-11-19T11:03:29.646Z,66.68
2022-11-19T11:06:03.200Z,65.23
2022-11-19T11:08:34.674Z,65.58
2022-11-19T11:11:06.543Z,65.52
2022-11-19T11:13:56.887Z,64.18
2022-11-19T11:16:29.873Z,62.83
2022-11-19T11:19:03.191Z,61.38
2022-11-19T11:21:35.171Z,62.09
2022-11-19T11:24:06.676Z,62.50
2022-11-19T11:26:38.675Z,64.02
2022-11-19T11:29:10.138Z,63.26
2022-11-19T11:31:42.103Z,63.58
2022-11-19T11:34:14.609Z,62.35
2022-11-19T11:36:46.400Z,63.71
2022-11-19T11:39:18.265Z,62.96
2022-11-19T11:42:07.023Z,63.21
2022-11-19T11:44:38.934Z,63.45
2022-11-19T11:47:10.462Z,63.69
2022-11-19T11:49:42.300Z,63.37
2022-11-19T11:52:14.252Z,63.09
2022-11-19T11:54:46.074Z,63.39
2022-11-19T11:57:17.592Z,62.02
2022-11-19T11:59:49.403Z,61.96
2022-11-19T12:02:21.253Z,60.89
2022-11-19T12:04:52.832Z,61.27
2022-11-19T12:07:24.382Z,61.65
2022-11-19T12:09:56.232Z,61.45
2022-11-19T12:12:27.709Z,62.65
2022-11-19T12:14:59.320Z,63.97
2022-11-19T12:17:30.885Z,63.58
2022-11-19T12:20:02.891Z,64.28
2022-11-19T12:22:34.370Z,65.85
2022-11-19T12:25:05.879Z,65.66
2022-11-19T12:27:37.356Z,65.06
2022-11-19T12:30:09.712Z,64.56
2022-11-19T12:32:41.208Z,64.09
2022-11-19T12:35:13.010Z,64.03
2022-11-19T12:37:44.488Z,62.31
2022-11-19T12:40:15.976Z,63.03
2022-11-19T12:42:47.453Z,62.78
2022-11-19T12:45:18.927Z,62.49
2022-11-19T12:47:50.402Z,63.81
2022-11-19T12:50:22.389Z,64.32
2022-11-19T12:52:53.977Z,64.56
2022-11-19T12:55:25.928Z,65.51
2022-11-19T12:57:57.476Z,66.07
2022-11-19T13:00:29.339Z,66.92
2022-11-19T13:03:01.105Z,69.42
2022-11-19T13:05:32.903Z,70.48
2022-11-19T13:08:04.399Z,71.52
2022-11-19T13:10:35.954Z,72.22
2022-11-19T13:13:07.427Z,72.81
2022-11-19T13:15:39.371Z,74.42
2022-11-19T13:18:10.959Z,73.91
2022-11-19T13:20:42.766Z,74.15
2022-11-19T13:23:14.239Z,75.82
2022-11-19T13:25:46.232Z,77.37
2022-11-19T13:28:17.701Z,77.85
2022-11-19T13:30:49.484Z,78.75
2022-11-19T13:33:20.974Z,80.16
2022-11-19T13:35:52.505Z,82.53
2022-11-19T13:38:24.025Z,83.70
2022-11-19T13:40:55.530Z,84.25
2022-11-19T13:43:45.815Z,85.41
2022-11-19T13:46:17.309Z,87.19
2022-11-19T13:48:48.800Z,86.88
2022-11-19T13:51:20.558Z,87.58
2022-11-19T13:53:52.044Z,88.08
2022-11-19T13:56:23.858Z,88.08
2022-11-19T13:58:55.427Z,89.09
2022-11-19T14:01:27.540Z,89.84
2022-11-19T14:03:59.066Z,89.99
2022-11-19T14:06:30.690Z,90.95
2022-11-19T14:09:02.183Z,90.74
2022-11-19T14:11:33.978Z,90.73
2022-11-19T14:14:05.442Z,90.38
2022-11-19T14:17:03.191Z,89.60
2022-11-19T14:19:53.244Z,89.19
2022-11-19T14:22:43.500Z,89.49
2022-11-19T14:25:33.983Z,89.87
2022-11-19T14:28:05.438Z,90.30
2022-11-19T14:30:36.949Z,92.15
2022-11-19T14:33:08.427Z,92.78
2022-11-19T14:35:40.302Z,92.67
2022-11-19T14:38:11.867Z,93.15
2022-11-19T14:40:44.213Z,93.46
2022-11-19T14:43:54.214Z,93.97
2022-11-19T14:46:26.134Z,96.05
2022-11-19T14:48:57.697Z,95.94
2022-11-19T14:51:29.666Z,95.91
2022-11-19T14:54:01.114Z,96.51
2022-11-19T14:56:33.006Z,97.99
2022-11-19T14:59:04.472Z,98.76
2022-11-19T15:01:36.382Z,98.41
2022-11-19T15:04:07.858Z,97.81
2022-11-19T15:06:40.105Z,98.07
2022-11-19T15:09:11.568Z,98.36
2022-11-19T15:11:43.388Z,99.41
2022-11-19T15:14:14.855Z,100.00
2022-11-19T15:16:46.404Z,100.00
2022-11-19T15:19:18.068Z,100.00
2022-11-19T15:21:50.125Z,99.49
2022-11-19T15:24:21.643Z,100.00
2022-11-19T15:26:53.402Z,100.00
2022-11-19T15:29:24.898Z,100.00
2022-11-19T15:31:56.777Z,100.00
2022-11-19T15:34:38.628Z,98.41
2022-11-19T15:37:20.404Z,97.97
2022-11-19T15:39:51.874Z,98.48
2022-11-19T15:42:23.737Z,99.09
2022-11-19T15:44:55.238Z,100.00
2022-11-19T15:47:27.206Z,100.00
2022-11-19T15:49:58.698Z,100.00
2022-11-19T15:52:33.581Z,100.00
2022-11-19T15:55:05.079Z,100.00
2022-11-19T15:57:36.560Z,100.00
2022-11-19T16:00:08.095Z,100.00
2022-11-19T16:02:39.982Z,100.00
2022-11-19T16:05:11.454Z,100.00
2022-11-19T16:07:43.273Z,100.00
2022-11-19T16:10:14.776Z,100.00
2022-11-19T16:13:05.117Z,100.00
2022-11-19T16:16:08.798Z,100.00
2022-11-19T16:18:40.367Z,100.00
2022-11-19T16:21:11.861Z,100.00
2022-11-19T16:24:03.757Z,100.00
2022-11-19T16:26:35.231Z,100.00
2022-11-19T16:29:06.773Z,100.00
2022-11-19T16:31:38.250Z,100.00
2022-11-19T16:34:09.733Z,100.00
2022-11-19T16:36:41.238Z,100.00
2022-11-19T16:39:12.754Z,100.00
2022-11-19T16:42:03.239Z,100.00
2022-11-19T16:44:34.711Z,100.00
2022-11-19T16:47:06.504Z,100.00
2022-11-19T16:49:37.973Z,100.00
2022-11-19T16:52:09.823Z,100.00
2022-11-19T16:54:41.291Z,100.00
2022-11-19T16:57:13.138Z,100.00
2022-11-19T16:59:44.596Z,100.00
2022-11-19T17:02:16.394Z,100.00
2022-11-19T17:04:48.895Z,100.00
2022-11-19T17:07:20.719Z,100.00
2022-11-19T17:09:52.226Z,100.00
2022-11-19T17:12:24.186Z,100.00
2022-11-19T17:14:55.749Z,100.00
2022-11-19T17:17:27.612Z,100.00
2022-11-19T17:19:59.108Z,100.00
2022-11-19T17:22:31.347Z,100.00
2022-11-19T17:25:03.702Z,100.00
2022-11-19T17:27:35.474Z,100.00
2022-11-19T17:30:06.992Z,100.00
2022-11-19T17:32:38.990Z,100.00
2022-11-19T17:35:10.486Z,100.00
2022-11-19T17:37:42.285Z,100.00
2022-11-19T17:40:13.745Z,100.00
2022-11-19T17:43:04.175Z,100.00
2022-11-19T17:45:35.661Z,100.00
2022-11-19T17:48:07.158Z,100.00
2022-11-19T17:50:38.647Z,100.00
2022-11-19T17:53:10.781Z,100.00
2022-11-19T17:55:42.242Z,100.00
2022-11-19T17:58:14.727Z,100.00
2022-11-19T18:00:46.286Z,100.00
2022-11-19T18:03:18.164Z,100.00
2022-11-19T18:05:49.681Z,100.00
2022-11-19T18:08:21.503Z,100.00
2022-11-19T18:10:52.985Z,100.00
2022-11-19T18:13:24.777Z,100.00
2022-11-19T18:15:57.661Z,100.00
2022-11-19T18:18:29.453Z,100.00
2022-11-19T18:21:02.389Z,100.00
2022-11-19T18:23:34.315Z,100.00
2022-11-19T18:26:05.790Z,100.00
2022-11-19T18:28:44.910Z,100.00
2022-11-19T18:31:19.190Z,100.00
2022-11-19T18:33:51.110Z,100.00
2022-11-19T18:36:22.639Z,100.00
2022-11-19T18:38:55.873Z,100.00
2022-11-19T18:41:27.549Z,100.00
2022-11-19T18:44:18.367Z,100.00
2022-11-19T18:46:49.863Z,100.00
2022-11-19T18:49:22.017Z,100.00
2022-11-19T18:51:53.681Z,100.00
2022-11-19T18:54:25.447Z,100.00
2022-11-19T18:56:56.926Z,100.00
2022-11-19T18:59:29.842Z,100.00
2022-11-19T19:02:02.028Z,100.00
2022-11-19T19:04:33.819Z,100.00
2022-11-19T19:07:05.498Z,100.00
2022-11-19T19:09:37.368Z,100.00
2022-11-19T19:12:18.175Z,100.00
2022-11-19T19:14:51.536Z,100.00
2022-11-19T19:17:23.510Z,100.00
2022-11-19T19:19:55.317Z,100.00
2022-11-19T19:22:26.871Z,100.00
2022-11-19T19:24:58.735Z,100.00
2022-11-19T19:27:30.279Z,100.00
2022-11-19T19:30:02.218Z,100.00
2022-11-19T19:32:33.687Z,100.00
2022-11-19T19:35:05.710Z,100.00
2022-11-19T19:37:37.199Z,100.00
2022-11-19T19:40:09.232Z,100.00
2022-11-19T19:42:41.480Z,100.00
2022-11-19T19:45:13.611Z,100.00
2022-11-19T19:47:45.461Z,100.00
2022-11-19T19:50:16.944Z,100.00
2022-11-19T19:52:49.099Z,100.00
2022-11-19T19:55:21.291Z,100.00
2022-11-19T19:57:54.061Z,100.00
2022-11-19T20:00:25.544Z,100.00
2022-11-19T20:02:57.066Z,100.00
2022-11-19T20:05:28.561Z,100.00
2022-11-19T20:08:00.855Z,100.00
2022-11-19T20:10:32.457Z,100.00
2022-11-19T20:13:23.287Z,100.00
2022-11-19T20:15:55.059Z,100.00
2022-11-19T20:18:26.678Z,100.00
2022-11-19T20:20:59.223Z,100.00
2022-11-19T20:23:30.696Z,100.00
2022-11-19T20:26:02.285Z,100.00
2022-11-19T20:28:33.898Z,100.00
2022-11-19T20:31:05.455Z,100.00
2022-11-19T20:33:36.992Z,100.00
2022-11-19T20:36:08.526Z,100.00
2022-11-19T20:38:41.478Z,100.00
2022-11-19T20:41:31.965Z,100.00
2022-11-19T20:44:22.541Z,100.00
2022-11-19T20:46:54.455Z,100.00
2022-11-19T20:49:26.300Z,100.00
2022-11-19T20:51:57.840Z,100.00
2022-11-19T20:54:29.703Z,100.00
2022-11-19T20:57:01.275Z,100.00
2022-11-19T20:59:32.804Z,100.00
2022-11-19T21:02:04.447Z,100.00
2022-11-19T21:04:37.274Z,100.00
2022-11-19T21:07:08.809Z,100.00
2022-11-19T21:09:40.981Z,100.00
2022-11-19T21:12:12.584Z,100.00
2022-11-19T21:14:44.161Z,100.00
2022-11-19T21:17:15.664Z,100.00
2022-11-19T21:19:48.966Z,100.00
2022-11-19T21:22:20.478Z,100.00
2022-11-19T21:24:52.327Z,100.00
2022-11-19T21:27:24.203Z,100.00
2022-11-19T21:29:55.995Z,100.00
2022-11-19T21:32:27.694Z,100.00
2022-11-19T21:34:59.637Z,100.00
2022-11-19T21:37:31.208Z,100.00
2022-11-19T21:40:03.058Z,100.00
2022-11-19T21:42:34.573Z,100.00
2022-11-19T21:45:06.102Z,100.00
2022-11-19T21:47:40.657Z,100.00
2022-11-19T21:50:12.404Z,100.00
2022-11-19T21:52:43.979Z,100.00
2022-11-19T21:55:15.593Z,100.00
2022-11-19T21:57:47.119Z,100.00
2022-11-19T22:00:19.033Z,100.00
2022-11-19T22:02:50.624Z,100.00
2022-11-19T22:05:25.016Z,100.00
2022-11-19T22:07:56.540Z,100.00
2022-11-19T22:10:28.359Z,100.00
2022-11-19T22:12:59.915Z,100.00
2022-11-19T22:15:31.424Z,100.00
2022-11-19T22:18:02.892Z,100.00
2022-11-19T22:20:34.779Z,100.00
2022-11-19T22:23:06.272Z,100.00
2022-11-19T22:25:37.811Z,100.00
2022-11-19T22:28:09.294Z,100.00
2022-11-19T22:30:41.241Z,100.00
2022-11-19T22:33:12.731Z,100.00
2022-11-19T22:35:44.483Z,100.00
2022-11-19T22:38:15.951Z,100.00
2022-11-19T22:40:47.792Z,100.00
2022-11-19T22:43:22.919Z,100.00
2022-11-19T22:45:54.942Z,100.00
2022-11-19T22:48:26.445Z,100.00
2022-11-19T22:50:58.396Z,100.00
2022-11-19T22:53:29.885Z,100.00
2022-11-19T22:56:01.799Z,100.00
2022-11-19T22:58:33.286Z,100.00
2022-11-19T23:01:05.167Z,100.00
2022-11-19T23:03:36.628Z,100.00
2022-11-19T23:06:08.117Z,100.00
2022-11-19T23:08:39.592Z,100.00
2022-11-19T23:11:11.418Z,100.00
2022-11-19T23:13:42.889Z,100.00
2022-11-19T23:16:14.725Z,100.00
2022-11-19T23:18:46.236Z,100.00
2022-11-19T23:21:18.187Z,100.00
2022-11-19T23:23:50.125Z,100.00
2022-11-19T23:26:21.590Z,100.00
2022-11-19T23:28:53.284Z,100.00
2022-11-19T23:31:24.773Z,100.00
2022-11-19T23:33:59.212Z,100.00
2022-11-19T23:36:31.059Z,100.00
2022-11-19T23:39:03.135Z,100.00
2022-11-19T23:41:34.594Z,100.00
2022-11-19T23:44:06.556Z,100.00
2022-11-19T23:46:38.032Z,100.00
2022-11-19T23:49:10.403Z,100.00
2022-11-19T23:51:41.930Z,100.00
2022-11-19T23:54:14.498Z,100.00
2022-11-19T23:56:45.983Z,100.00
2022-11-19T23:59:21.691Z,100.00
